sensor_id;sensor_type;location;lat;lon;timestamp;P1;durP1;ratioP1;P2;durP2;ratioP2
53971;SDS011;40530;53.062;6.078;2024-01-07T00:02:13;19.33;;;6.63;;
53971;SDS011;40530;53.062;6.078;2024-01-07T00:04:39;10.27;;;6.50;;
53971;SDS011;40530;53.062;6.078;2024-01-07T00:07:06;9.63;;;6.70;;
53971;SDS011;40530;53.062;6.078;2024-01-07T00:09:32;8.40;;;5.57;;
53971;SDS011;40530;53.062;6.078;2024-01-07T00:11:58;12.52;;;6.22;;
53971;SDS011;40530;53.062;6.078;2024-01-07T00:14:24;8.23;;;6.00;;
53971;SDS011;40530;53.062;6.078;2024-01-07T00:16:50;8.82;;;5.90;;
53971;SDS011;40530;53.062;6.078;2024-01-07T00:19:16;11.20;;;6.43;;
53971;SDS011;40530;53.062;6.078;2024-01-07T00:21:42;11.30;;;6.22;;
53971;SDS011;40530;53.062;6.078;2024-01-07T00:24:08;9.40;;;6.57;;
53971;SDS011;40530;53.062;6.078;2024-01-07T00:26:34;13.35;;;7.32;;
53971;SDS011;40530;53.062;6.078;2024-01-07T00:29:00;19.30;;;8.00;;
53971;SDS011;40530;53.062;6.078;2024-01-07T00:31:26;9.98;;;7.00;;
53971;SDS011;40530;53.062;6.078;2024-01-07T00:33:52;15.60;;;6.93;;
53971;SDS011;40530;53.062;6.078;2024-01-07T00:36:18;14.10;;;7.22;;
53971;SDS011;40530;53.062;6.078;2024-01-07T00:38:45;10.85;;;6.90;;
53971;SDS011;40530;53.062;6.078;2024-01-07T00:41:11;9.75;;;6.82;;
53971;SDS011;40530;53.062;6.078;2024-01-07T00:43:37;13.77;;;7.32;;
53971;SDS011;40530;53.062;6.078;2024-01-07T00:46:04;12.60;;;7.45;;
53971;SDS011;40530;53.062;6.078;2024-01-07T00:48:30;12.43;;;7.38;;
53971;SDS011;40530;53.062;6.078;2024-01-07T00:50:56;12.07;;;7.45;;
53971;SDS011;40530;53.062;6.078;2024-01-07T00:53:22;10.85;;;8.07;;
53971;SDS011;40530;53.062;6.078;2024-01-07T00:55:48;13.00;;;8.02;;
53971;SDS011;40530;53.062;6.078;2024-01-07T00:58:14;14.00;;;9.52;;
53971;SDS011;40530;53.062;6.078;2024-01-07T01:00:40;11.52;;;8.27;;
53971;SDS011;40530;53.062;6.078;2024-01-07T01:03:06;12.75;;;8.20;;
53971;SDS011;40530;53.062;6.078;2024-01-07T01:05:32;12.60;;;8.43;;
53971;SDS011;40530;53.062;6.078;2024-01-07T01:07:58;13.13;;;8.38;;
53971;SDS011;40530;53.062;6.078;2024-01-07T01:10:24;13.57;;;7.50;;
53971;SDS011;40530;53.062;6.078;2024-01-07T01:12:50;11.57;;;7.47;;
53971;SDS011;40530;53.062;6.078;2024-01-07T01:15:19;10.25;;;7.45;;
53971;SDS011;40530;53.062;6.078;2024-01-07T01:17:45;9.10;;;6.70;;
53971;SDS011;40530;53.062;6.078;2024-01-07T01:20:11;10.93;;;6.90;;
53971;SDS011;40530;53.062;6.078;2024-01-07T01:22:37;11.68;;;7.05;;
53971;SDS011;40530;53.062;6.078;2024-01-07T01:25:03;14.27;;;6.72;;
53971;SDS011;40530;53.062;6.078;2024-01-07T01:27:29;9.82;;;6.55;;
53971;SDS011;40530;53.062;6.078;2024-01-07T01:29:55;11.80;;;6.70;;
53971;SDS011;40530;53.062;6.078;2024-01-07T01:32:21;10.95;;;6.13;;
53971;SDS011;40530;53.062;6.078;2024-01-07T01:34:47;9.45;;;6.68;;
53971;SDS011;40530;53.062;6.078;2024-01-07T01:37:13;11.15;;;6.57;;
53971;SDS011;40530;53.062;6.078;2024-01-07T01:39:40;10.55;;;7.28;;
53971;SDS011;40530;53.062;6.078;2024-01-07T01:42:06;10.77;;;7.25;;
53971;SDS011;40530;53.062;6.078;2024-01-07T01:44:33;12.30;;;6.90;;
53971;SDS011;40530;53.062;6.078;2024-01-07T01:46:59;11.60;;;6.47;;
53971;SDS011;40530;53.062;6.078;2024-01-07T01:49:26;11.27;;;6.45;;
53971;SDS011;40530;53.062;6.078;2024-01-07T01:51:52;10.02;;;6.93;;
53971;SDS011;40530;53.062;6.078;2024-01-07T01:54:18;12.90;;;8.02;;
53971;SDS011;40530;53.062;6.078;2024-01-07T01:56:45;9.55;;;6.85;;
53971;SDS011;40530;53.062;6.078;2024-01-07T01:59:12;10.80;;;7.10;;
53971;SDS011;40530;53.062;6.078;2024-01-07T02:01:38;9.98;;;7.10;;
53971;SDS011;40530;53.062;6.078;2024-01-07T02:04:05;10.57;;;6.80;;
53971;SDS011;40530;53.062;6.078;2024-01-07T02:06:31;8.80;;;6.30;;
53971;SDS011;40530;53.062;6.078;2024-01-07T02:08:57;10.02;;;6.68;;
53971;SDS011;40530;53.062;6.078;2024-01-07T02:11:23;9.13;;;5.97;;
53971;SDS011;40530;53.062;6.078;2024-01-07T02:13:49;11.05;;;6.97;;
53971;SDS011;40530;53.062;6.078;2024-01-07T02:16:15;10.85;;;7.03;;
53971;SDS011;40530;53.062;6.078;2024-01-07T02:18:42;15.88;;;6.78;;
53971;SDS011;40530;53.062;6.078;2024-01-07T02:21:08;9.75;;;6.50;;
53971;SDS011;40530;53.062;6.078;2024-01-07T02:23:35;10.88;;;6.20;;
53971;SDS011;40530;53.062;6.078;2024-01-07T02:26:01;8.73;;;5.93;;
53971;SDS011;40530;53.062;6.078;2024-01-07T02:28:27;8.18;;;5.40;;
53971;SDS011;40530;53.062;6.078;2024-01-07T02:30:53;9.57;;;5.80;;
53971;SDS011;40530;53.062;6.078;2024-01-07T02:33:19;8.90;;;5.93;;
53971;SDS011;40530;53.062;6.078;2024-01-07T02:35:45;9.48;;;5.82;;
53971;SDS011;40530;53.062;6.078;2024-01-07T02:38:11;9.45;;;5.55;;
53971;SDS011;40530;53.062;6.078;2024-01-07T02:40:37;9.57;;;5.50;;
53971;SDS011;40530;53.062;6.078;2024-01-07T02:43:03;10.70;;;5.90;;
53971;SDS011;40530;53.062;6.078;2024-01-07T02:45:29;5.32;;;4.18;;
53971;SDS011;40530;53.062;6.078;2024-01-07T02:47:56;7.13;;;5.03;;
53971;SDS011;40530;53.062;6.078;2024-01-07T02:50:22;7.15;;;4.85;;
53971;SDS011;40530;53.062;6.078;2024-01-07T02:52:48;6.32;;;4.30;;
53971;SDS011;40530;53.062;6.078;2024-01-07T02:55:14;7.47;;;4.00;;
53971;SDS011;40530;53.062;6.078;2024-01-07T02:57:40;10.43;;;4.63;;
53971;SDS011;40530;53.062;6.078;2024-01-07T03:00:06;7.82;;;4.20;;
53971;SDS011;40530;53.062;6.078;2024-01-07T03:02:32;7.80;;;4.53;;
53971;SDS011;40530;53.062;6.078;2024-01-07T03:04:59;7.00;;;4.30;;
53971;SDS011;40530;53.062;6.078;2024-01-07T03:07:25;7.28;;;4.55;;
53971;SDS011;40530;53.062;6.078;2024-01-07T03:09:51;8.30;;;4.85;;
53971;SDS011;40530;53.062;6.078;2024-01-07T03:12:17;8.55;;;4.65;;
53971;SDS011;40530;53.062;6.078;2024-01-07T03:14:43;8.73;;;4.75;;
53971;SDS011;40530;53.062;6.078;2024-01-07T03:17:10;7.57;;;4.55;;
53971;SDS011;40530;53.062;6.078;2024-01-07T03:19:39;8.55;;;4.65;;
53971;SDS011;40530;53.062;6.078;2024-01-07T03:22:06;6.80;;;4.57;;
53971;SDS011;40530;53.062;6.078;2024-01-07T03:24:32;9.73;;;4.78;;
53971;SDS011;40530;53.062;6.078;2024-01-07T03:26:58;8.05;;;4.60;;
53971;SDS011;40530;53.062;6.078;2024-01-07T03:29:24;8.88;;;4.80;;
53971;SDS011;40530;53.062;6.078;2024-01-07T03:31:50;7.07;;;4.82;;
53971;SDS011;40530;53.062;6.078;2024-01-07T03:34:17;6.25;;;3.95;;
53971;SDS011;40530;53.062;6.078;2024-01-07T03:36:43;8.00;;;4.35;;
53971;SDS011;40530;53.062;6.078;2024-01-07T03:39:10;6.90;;;4.03;;
53971;SDS011;40530;53.062;6.078;2024-01-07T03:41:36;6.82;;;3.70;;
53971;SDS011;40530;53.062;6.078;2024-01-07T03:44:02;6.13;;;3.78;;
53971;SDS011;40530;53.062;6.078;2024-01-07T03:46:28;7.25;;;3.92;;
53971;SDS011;40530;53.062;6.078;2024-01-07T03:48:54;8.38;;;3.60;;
53971;SDS011;40530;53.062;6.078;2024-01-07T03:51:20;6.20;;;3.58;;
53971;SDS011;40530;53.062;6.078;2024-01-07T03:53:46;7.75;;;3.92;;
53971;SDS011;40530;53.062;6.078;2024-01-07T03:56:12;4.82;;;3.05;;
53971;SDS011;40530;53.062;6.078;2024-01-07T03:58:38;5.60;;;3.35;;
53971;SDS011;40530;53.062;6.078;2024-01-07T04:01:04;5.28;;;2.70;;
53971;SDS011;40530;53.062;6.078;2024-01-07T04:03:30;5.75;;;3.38;;
53971;SDS011;40530;53.062;6.078;2024-01-07T04:05:56;8.40;;;3.78;;
53971;SDS011;40530;53.062;6.078;2024-01-07T04:08:22;7.20;;;3.75;;
53971;SDS011;40530;53.062;6.078;2024-01-07T04:10:49;7.00;;;3.25;;
53971;SDS011;40530;53.062;6.078;2024-01-07T04:13:15;5.70;;;3.22;;
53971;SDS011;40530;53.062;6.078;2024-01-07T04:15:41;5.70;;;3.08;;
53971;SDS011;40530;53.062;6.078;2024-01-07T04:18:07;3.80;;;3.10;;
53971;SDS011;40530;53.062;6.078;2024-01-07T04:20:33;5.13;;;3.22;;
53971;SDS011;40530;53.062;6.078;2024-01-07T04:22:59;6.85;;;2.75;;
53971;SDS011;40530;53.062;6.078;2024-01-07T04:25:25;3.67;;;2.78;;
53971;SDS011;40530;53.062;6.078;2024-01-07T04:27:51;8.50;;;2.78;;
53971;SDS011;40530;53.062;6.078;2024-01-07T04:30:17;8.13;;;2.97;;
53971;SDS011;40530;53.062;6.078;2024-01-07T04:32:43;5.05;;;2.70;;
53971;SDS011;40530;53.062;6.078;2024-01-07T04:35:09;5.85;;;3.30;;
53971;SDS011;40530;53.062;6.078;2024-01-07T04:37:37;9.02;;;3.45;;
53971;SDS011;40530;53.062;6.078;2024-01-07T04:40:03;4.47;;;2.58;;
53971;SDS011;40530;53.062;6.078;2024-01-07T04:42:29;5.47;;;3.47;;
53971;SDS011;40530;53.062;6.078;2024-01-07T04:44:56;6.38;;;3.05;;
53971;SDS011;40530;53.062;6.078;2024-01-07T04:47:29;7.43;;;2.78;;
53971;SDS011;40530;53.062;6.078;2024-01-07T04:49:56;4.43;;;2.20;;
53971;SDS011;40530;53.062;6.078;2024-01-07T04:52:22;7.15;;;2.60;;
53971;SDS011;40530;53.062;6.078;2024-01-07T04:54:52;3.55;;;2.22;;
53971;SDS011;40530;53.062;6.078;2024-01-07T04:57:18;2.92;;;1.80;;
53971;SDS011;40530;53.062;6.078;2024-01-07T04:59:45;5.30;;;2.30;;
53971;SDS011;40530;53.062;6.078;2024-01-07T05:02:11;3.13;;;1.80;;
53971;SDS011;40530;53.062;6.078;2024-01-07T05:04:37;4.18;;;2.00;;
53971;SDS011;40530;53.062;6.078;2024-01-07T05:07:03;7.47;;;2.17;;
53971;SDS011;40530;53.062;6.078;2024-01-07T05:09:30;5.22;;;2.20;;
53971;SDS011;40530;53.062;6.078;2024-01-07T05:11:56;5.68;;;2.13;;
53971;SDS011;40530;53.062;6.078;2024-01-07T05:14:22;4.45;;;2.17;;
53971;SDS011;40530;53.062;6.078;2024-01-07T05:16:49;4.38;;;1.70;;
53971;SDS011;40530;53.062;6.078;2024-01-07T05:19:15;4.18;;;1.98;;
53971;SDS011;40530;53.062;6.078;2024-01-07T05:21:41;1.48;;;1.17;;
53971;SDS011;40530;53.062;6.078;2024-01-07T05:24:07;4.97;;;1.70;;
53971;SDS011;40530;53.062;6.078;2024-01-07T05:26:43;2.88;;;1.75;;
53971;SDS011;40530;53.062;6.078;2024-01-07T05:29:09;2.85;;;1.75;;
53971;SDS011;40530;53.062;6.078;2024-01-07T05:31:36;5.40;;;2.10;;
53971;SDS011;40530;53.062;6.078;2024-01-07T05:34:02;3.58;;;1.92;;
53971;SDS011;40530;53.062;6.078;2024-01-07T05:36:28;4.63;;;1.90;;
53971;SDS011;40530;53.062;6.078;2024-01-07T05:38:54;6.00;;;1.70;;
53971;SDS011;40530;53.062;6.078;2024-01-07T05:41:21;3.42;;;1.70;;
53971;SDS011;40530;53.062;6.078;2024-01-07T05:43:47;3.35;;;1.80;;
53971;SDS011;40530;53.062;6.078;2024-01-07T05:46:13;4.82;;;2.28;;
53971;SDS011;40530;53.062;6.078;2024-01-07T05:48:43;4.22;;;1.88;;
53971;SDS011;40530;53.062;6.078;2024-01-07T05:51:09;6.10;;;3.17;;
53971;SDS011;40530;53.062;6.078;2024-01-07T05:53:35;4.75;;;1.70;;
53971;SDS011;40530;53.062;6.078;2024-01-07T05:56:01;3.63;;;1.90;;
53971;SDS011;40530;53.062;6.078;2024-01-07T05:58:28;2.17;;;1.50;;
53971;SDS011;40530;53.062;6.078;2024-01-07T06:00:54;2.63;;;1.50;;
53971;SDS011;40530;53.062;6.078;2024-01-07T06:03:20;4.88;;;1.75;;
53971;SDS011;40530;53.062;6.078;2024-01-07T06:05:46;2.42;;;1.27;;
53971;SDS011;40530;53.062;6.078;2024-01-07T06:08:12;3.50;;;1.50;;
53971;SDS011;40530;53.062;6.078;2024-01-07T06:10:38;4.20;;;1.40;;
53971;SDS011;40530;53.062;6.078;2024-01-07T06:13:05;3.47;;;1.33;;
53971;SDS011;40530;53.062;6.078;2024-01-07T06:15:31;2.97;;;1.23;;
53971;SDS011;40530;53.062;6.078;2024-01-07T06:17:57;4.13;;;1.30;;
53971;SDS011;40530;53.062;6.078;2024-01-07T06:20:23;4.70;;;1.58;;
53971;SDS011;40530;53.062;6.078;2024-01-07T06:22:49;3.42;;;1.70;;
53971;SDS011;40530;53.062;6.078;2024-01-07T06:25:16;2.05;;;1.25;;
53971;SDS011;40530;53.062;6.078;2024-01-07T06:27:42;4.47;;;1.10;;
53971;SDS011;40530;53.062;6.078;2024-01-07T06:30:08;3.65;;;1.80;;
53971;SDS011;40530;53.062;6.078;2024-01-07T06:32:34;7.40;;;1.77;;
53971;SDS011;40530;53.062;6.078;2024-01-07T06:35:00;3.55;;;1.23;;
53971;SDS011;40530;53.062;6.078;2024-01-07T06:37:28;3.17;;;1.42;;
53971;SDS011;40530;53.062;6.078;2024-01-07T06:39:55;3.83;;;0.93;;
53971;SDS011;40530;53.062;6.078;2024-01-07T06:42:21;3.47;;;1.10;;
53971;SDS011;40530;53.062;6.078;2024-01-07T06:44:48;5.88;;;1.50;;
53971;SDS011;40530;53.062;6.078;2024-01-07T06:47:14;1.65;;;0.98;;
53971;SDS011;40530;53.062;6.078;2024-01-07T06:49:40;3.55;;;0.90;;
53971;SDS011;40530;53.062;6.078;2024-01-07T06:52:06;4.80;;;1.00;;
53971;SDS011;40530;53.062;6.078;2024-01-07T06:54:32;2.95;;;1.17;;
53971;SDS011;40530;53.062;6.078;2024-01-07T06:56:58;1.88;;;0.88;;
53971;SDS011;40530;53.062;6.078;2024-01-07T06:59:24;1.73;;;0.90;;
53971;SDS011;40530;53.062;6.078;2024-01-07T07:01:50;2.67;;;1.10;;
53971;SDS011;40530;53.062;6.078;2024-01-07T07:04:18;4.13;;;1.30;;
53971;SDS011;40530;53.062;6.078;2024-01-07T07:06:45;2.83;;;1.33;;
53971;SDS011;40530;53.062;6.078;2024-01-07T07:09:11;1.45;;;0.98;;
53971;SDS011;40530;53.062;6.078;2024-01-07T07:11:37;2.08;;;1.27;;
53971;SDS011;40530;53.062;6.078;2024-01-07T07:14:04;1.73;;;1.00;;
53971;SDS011;40530;53.062;6.078;2024-01-07T07:16:31;3.60;;;1.77;;
53971;SDS011;40530;53.062;6.078;2024-01-07T07:18:57;2.13;;;0.90;;
53971;SDS011;40530;53.062;6.078;2024-01-07T07:21:23;5.97;;;0.95;;
53971;SDS011;40530;53.062;6.078;2024-01-07T07:23:49;1.75;;;0.85;;
53971;SDS011;40530;53.062;6.078;2024-01-07T07:26:15;2.63;;;0.88;;
53971;SDS011;40530;53.062;6.078;2024-01-07T07:28:41;3.90;;;1.00;;
53971;SDS011;40530;53.062;6.078;2024-01-07T07:31:07;2.10;;;1.00;;
53971;SDS011;40530;53.062;6.078;2024-01-07T07:33:33;1.35;;;0.88;;
53971;SDS011;40530;53.062;6.078;2024-01-07T07:35:59;1.60;;;0.95;;
53971;SDS011;40530;53.062;6.078;2024-01-07T07:38:25;19.25;;;7.63;;
53971;SDS011;40530;53.062;6.078;2024-01-07T07:40:51;11.73;;;5.57;;
53971;SDS011;40530;53.062;6.078;2024-01-07T07:43:20;2.78;;;0.93;;
53971;SDS011;40530;53.062;6.078;2024-01-07T07:45:46;4.00;;;1.00;;
53971;SDS011;40530;53.062;6.078;2024-01-07T07:48:13;3.42;;;1.15;;
53971;SDS011;40530;53.062;6.078;2024-01-07T07:50:39;2.45;;;1.00;;
53971;SDS011;40530;53.062;6.078;2024-01-07T07:53:05;4.78;;;1.30;;
53971;SDS011;40530;53.062;6.078;2024-01-07T07:55:31;4.25;;;1.83;;
53971;SDS011;40530;53.062;6.078;2024-01-07T07:57:57;3.50;;;1.08;;
53971;SDS011;40530;53.062;6.078;2024-01-07T08:00:24;1.92;;;0.75;;
53971;SDS011;40530;53.062;6.078;2024-01-07T08:02:50;5.85;;;1.00;;
53971;SDS011;40530;53.062;6.078;2024-01-07T08:05:16;1.90;;;1.00;;
53971;SDS011;40530;53.062;6.078;2024-01-07T08:07:42;3.60;;;1.35;;
53971;SDS011;40530;53.062;6.078;2024-01-07T08:10:09;2.80;;;0.82;;
53971;SDS011;40530;53.062;6.078;2024-01-07T08:12:35;5.43;;;1.00;;
53971;SDS011;40530;53.062;6.078;2024-01-07T08:15:01;1.70;;;0.80;;
53971;SDS011;40530;53.062;6.078;2024-01-07T08:17:27;2.33;;;1.00;;
53971;SDS011;40530;53.062;6.078;2024-01-07T08:19:53;2.65;;;1.00;;
53971;SDS011;40530;53.062;6.078;2024-01-07T08:22:19;3.50;;;1.30;;
53971;SDS011;40530;53.062;6.078;2024-01-07T08:24:45;4.30;;;1.10;;
53971;SDS011;40530;53.062;6.078;2024-01-07T08:27:11;3.22;;;1.30;;
53971;SDS011;40530;53.062;6.078;2024-01-07T08:29:37;1.88;;;0.80;;
53971;SDS011;40530;53.062;6.078;2024-01-07T08:32:03;1.40;;;0.77;;
53971;SDS011;40530;53.062;6.078;2024-01-07T08:34:30;1.75;;;0.95;;
53971;SDS011;40530;53.062;6.078;2024-01-07T08:36:56;2.85;;;1.00;;
53971;SDS011;40530;53.062;6.078;2024-01-07T08:39:22;3.75;;;0.98;;
53971;SDS011;40530;53.062;6.078;2024-01-07T08:41:48;2.40;;;1.00;;
53971;SDS011;40530;53.062;6.078;2024-01-07T08:44:14;2.05;;;1.25;;
53971;SDS011;40530;53.062;6.078;2024-01-07T08:46:40;3.67;;;0.90;;
53971;SDS011;40530;53.062;6.078;2024-01-07T08:49:06;2.97;;;1.00;;
53971;SDS011;40530;53.062;6.078;2024-01-07T08:51:32;2.47;;;1.10;;
53971;SDS011;40530;53.062;6.078;2024-01-07T08:53:58;3.08;;;1.30;;
53971;SDS011;40530;53.062;6.078;2024-01-07T08:56:24;3.55;;;1.17;;
53971;SDS011;40530;53.062;6.078;2024-01-07T08:58:50;4.97;;;1.70;;
53971;SDS011;40530;53.062;6.078;2024-01-07T09:01:17;2.85;;;0.90;;
53971;SDS011;40530;53.062;6.078;2024-01-07T09:03:43;4.88;;;2.33;;
53971;SDS011;40530;53.062;6.078;2024-01-07T09:06:09;2.85;;;1.63;;
53971;SDS011;40530;53.062;6.078;2024-01-07T09:08:35;5.15;;;2.55;;
53971;SDS011;40530;53.062;6.078;2024-01-07T09:11:03;5.35;;;1.83;;
53971;SDS011;40530;53.062;6.078;2024-01-07T09:13:31;3.60;;;1.80;;
53971;SDS011;40530;53.062;6.078;2024-01-07T09:15:57;2.90;;;1.63;;
53971;SDS011;40530;53.062;6.078;2024-01-07T09:18:23;6.40;;;3.05;;
53971;SDS011;40530;53.062;6.078;2024-01-07T09:20:49;7.47;;;3.78;;
53971;SDS011;40530;53.062;6.078;2024-01-07T09:23:15;3.17;;;1.85;;
53971;SDS011;40530;53.062;6.078;2024-01-07T09:25:41;3.75;;;1.48;;
53971;SDS011;40530;53.062;6.078;2024-01-07T09:28:08;4.95;;;2.40;;
53971;SDS011;40530;53.062;6.078;2024-01-07T09:30:34;3.10;;;1.70;;
53971;SDS011;40530;53.062;6.078;2024-01-07T09:33:00;6.35;;;1.27;;
53971;SDS011;40530;53.062;6.078;2024-01-07T09:35:26;2.55;;;1.10;;
53971;SDS011;40530;53.062;6.078;2024-01-07T09:37:52;3.33;;;1.45;;
53971;SDS011;40530;53.062;6.078;2024-01-07T09:40:19;1.42;;;0.90;;
53971;SDS011;40530;53.062;6.078;2024-01-07T09:42:45;3.90;;;1.00;;
53971;SDS011;40530;53.062;6.078;2024-01-07T09:45:12;3.95;;;1.50;;
53971;SDS011;40530;53.062;6.078;2024-01-07T09:47:42;2.47;;;1.20;;
53971;SDS011;40530;53.062;6.078;2024-01-07T09:50:10;3.67;;;1.20;;
53971;SDS011;40530;53.062;6.078;2024-01-07T09:52:37;1.55;;;0.80;;
53971;SDS011;40530;53.062;6.078;2024-01-07T09:55:04;5.30;;;2.65;;
53971;SDS011;40530;53.062;6.078;2024-01-07T09:57:33;6.10;;;1.52;;
53971;SDS011;40530;53.062;6.078;2024-01-07T10:00:00;1.77;;;0.73;;
53971;SDS011;40530;53.062;6.078;2024-01-07T10:02:27;3.05;;;1.95;;
53971;SDS011;40530;53.062;6.078;2024-01-07T10:04:53;4.03;;;1.00;;
53971;SDS011;40530;53.062;6.078;2024-01-07T10:07:19;3.08;;;0.80;;
53971;SDS011;40530;53.062;6.078;2024-01-07T10:09:45;1.73;;;0.80;;
53971;SDS011;40530;53.062;6.078;2024-01-07T10:12:11;5.20;;;1.73;;
53971;SDS011;40530;53.062;6.078;2024-01-07T10:14:37;2.22;;;1.15;;
53971;SDS011;40530;53.062;6.078;2024-01-07T10:17:15;2.17;;;0.82;;
53971;SDS011;40530;53.062;6.078;2024-01-07T10:19:43;0.90;;;0.77;;
53971;SDS011;40530;53.062;6.078;2024-01-07T10:22:11;1.63;;;0.80;;
53971;SDS011;40530;53.062;6.078;2024-01-07T10:24:41;2.75;;;1.00;;
53971;SDS011;40530;53.062;6.078;2024-01-07T10:27:08;2.20;;;0.77;;
53971;SDS011;40530;53.062;6.078;2024-01-07T10:29:35;2.22;;;1.05;;
53971;SDS011;40530;53.062;6.078;2024-01-07T10:32:02;3.80;;;1.33;;
53971;SDS011;40530;53.062;6.078;2024-01-07T10:34:33;1.80;;;0.85;;
53971;SDS011;40530;53.062;6.078;2024-01-07T10:37:00;5.07;;;1.65;;
53971;SDS011;40530;53.062;6.078;2024-01-07T10:39:27;1.85;;;1.02;;
53971;SDS011;40530;53.062;6.078;2024-01-07T10:41:53;3.22;;;1.05;;
53971;SDS011;40530;53.062;6.078;2024-01-07T10:44:23;2.47;;;1.08;;
53971;SDS011;40530;53.062;6.078;2024-01-07T10:46:49;1.98;;;1.00;;
53971;SDS011;40530;53.062;6.078;2024-01-07T10:49:22;7.53;;;4.15;;
53971;SDS011;40530;53.062;6.078;2024-01-07T10:52:04;3.80;;;1.17;;
53971;SDS011;40530;53.062;6.078;2024-01-07T10:54:30;4.20;;;1.20;;
53971;SDS011;40530;53.062;6.078;2024-01-07T10:56:58;2.80;;;1.00;;
53971;SDS011;40530;53.062;6.078;2024-01-07T10:59:29;2.40;;;1.10;;
53971;SDS011;40530;53.062;6.078;2024-01-07T11:01:55;3.22;;;0.93;;
53971;SDS011;40530;53.062;6.078;2024-01-07T11:04:33;2.95;;;1.95;;
53971;SDS011;40530;53.062;6.078;2024-01-07T11:09:54;7.30;;;1.58;;
53971;SDS011;40530;53.062;6.078;2024-01-07T11:12:22;3.25;;;1.20;;
53971;SDS011;40530;53.062;6.078;2024-01-07T11:14:48;2.83;;;0.70;;
53971;SDS011;40530;53.062;6.078;2024-01-07T11:20:06;1.73;;;1.23;;
53971;SDS011;40530;53.062;6.078;2024-01-07T11:22:34;3.83;;;1.20;;
53971;SDS011;40530;53.062;6.078;2024-01-07T11:25:01;4.28;;;1.10;;
53971;SDS011;40530;53.062;6.078;2024-01-07T11:27:31;4.03;;;2.17;;
53971;SDS011;40530;53.062;6.078;2024-01-07T11:29:58;2.78;;;1.20;;
53971;SDS011;40530;53.062;6.078;2024-01-07T11:32:29;2.17;;;1.00;;
53971;SDS011;40530;53.062;6.078;2024-01-07T11:34:55;1.77;;;1.17;;
53971;SDS011;40530;53.062;6.078;2024-01-07T11:37:24;1.42;;;0.98;;
53971;SDS011;40530;53.062;6.078;2024-01-07T11:39:51;2.90;;;1.33;;
53971;SDS011;40530;53.062;6.078;2024-01-07T11:42:17;3.00;;;1.50;;
53971;SDS011;40530;53.062;6.078;2024-01-07T11:44:47;3.60;;;0.98;;
53971;SDS011;40530;53.062;6.078;2024-01-07T11:47:14;4.88;;;1.95;;
53971;SDS011;40530;53.062;6.078;2024-01-07T11:49:40;2.63;;;1.05;;
53971;SDS011;40530;53.062;6.078;2024-01-07T11:52:06;5.53;;;1.38;;
53971;SDS011;40530;53.062;6.078;2024-01-07T11:54:33;3.00;;;1.10;;
53971;SDS011;40530;53.062;6.078;2024-01-07T11:56:59;3.08;;;1.25;;
53971;SDS011;40530;53.062;6.078;2024-01-07T11:59:25;2.58;;;1.10;;
53971;SDS011;40530;53.062;6.078;2024-01-07T12:01:51;1.92;;;0.85;;
53971;SDS011;40530;53.062;6.078;2024-01-07T12:04:17;11.13;;;3.80;;
53971;SDS011;40530;53.062;6.078;2024-01-07T12:06:43;15.65;;;5.20;;
53971;SDS011;40530;53.062;6.078;2024-01-07T12:09:11;2.78;;;1.10;;
53971;SDS011;40530;53.062;6.078;2024-01-07T12:11:39;1.85;;;1.17;;
53971;SDS011;40530;53.062;6.078;2024-01-07T12:14:06;1.10;;;1.00;;
53971;SDS011;40530;53.062;6.078;2024-01-07T12:16:32;4.45;;;1.52;;
53971;SDS011;40530;53.062;6.078;2024-01-07T12:18:59;4.20;;;1.23;;
53971;SDS011;40530;53.062;6.078;2024-01-07T12:21:25;3.55;;;1.20;;
53971;SDS011;40530;53.062;6.078;2024-01-07T12:23:54;2.10;;;1.30;;
53971;SDS011;40530;53.062;6.078;2024-01-07T12:26:25;4.88;;;1.70;;
53971;SDS011;40530;53.062;6.078;2024-01-07T12:28:52;2.90;;;1.60;;
53971;SDS011;40530;53.062;6.078;2024-01-07T12:31:19;12.13;;;2.15;;
53971;SDS011;40530;53.062;6.078;2024-01-07T12:33:46;3.80;;;2.03;;
53971;SDS011;40530;53.062;6.078;2024-01-07T12:36:12;4.93;;;2.05;;
53971;SDS011;40530;53.062;6.078;2024-01-07T12:38:38;3.72;;;1.95;;
53971;SDS011;40530;53.062;6.078;2024-01-07T12:41:04;2.42;;;1.63;;
53971;SDS011;40530;53.062;6.078;2024-01-07T12:43:30;3.22;;;1.40;;
53971;SDS011;40530;53.062;6.078;2024-01-07T12:45:57;7.20;;;1.92;;
53971;SDS011;40530;53.062;6.078;2024-01-07T12:48:29;5.57;;;1.70;;
53971;SDS011;40530;53.062;6.078;2024-01-07T12:50:55;4.68;;;2.17;;
53971;SDS011;40530;53.062;6.078;2024-01-07T12:53:21;2.85;;;1.83;;
53971;SDS011;40530;53.062;6.078;2024-01-07T12:55:47;5.78;;;2.13;;
53971;SDS011;40530;53.062;6.078;2024-01-07T12:58:13;3.45;;;2.00;;
53971;SDS011;40530;53.062;6.078;2024-01-07T13:00:39;3.53;;;1.95;;
53971;SDS011;40530;53.062;6.078;2024-01-07T13:03:06;6.57;;;2.20;;
53971;SDS011;40530;53.062;6.078;2024-01-07T13:05:33;5.95;;;2.15;;
53971;SDS011;40530;53.062;6.078;2024-01-07T13:07:59;4.40;;;2.22;;
53971;SDS011;40530;53.062;6.078;2024-01-07T13:10:25;4.38;;;2.45;;
53971;SDS011;40530;53.062;6.078;2024-01-07T13:12:52;5.03;;;2.05;;
53971;SDS011;40530;53.062;6.078;2024-01-07T13:15:18;3.40;;;2.38;;
53971;SDS011;40530;53.062;6.078;2024-01-07T13:17:44;6.43;;;2.10;;
53971;SDS011;40530;53.062;6.078;2024-01-07T13:20:10;4.80;;;2.70;;
53971;SDS011;40530;53.062;6.078;2024-01-07T13:22:37;4.85;;;2.92;;
53971;SDS011;40530;53.062;6.078;2024-01-07T13:25:04;7.78;;;2.90;;
53971;SDS011;40530;53.062;6.078;2024-01-07T13:27:30;4.50;;;2.08;;
53971;SDS011;40530;53.062;6.078;2024-01-07T13:29:56;6.15;;;2.78;;
53971;SDS011;40530;53.062;6.078;2024-01-07T13:32:22;7.30;;;3.15;;
53971;SDS011;40530;53.062;6.078;2024-01-07T13:34:48;7.18;;;2.08;;
53971;SDS011;40530;53.062;6.078;2024-01-07T13:37:14;4.88;;;2.40;;
53971;SDS011;40530;53.062;6.078;2024-01-07T13:39:41;4.45;;;2.13;;
53971;SDS011;40530;53.062;6.078;2024-01-07T13:42:07;5.65;;;2.65;;
53971;SDS011;40530;53.062;6.078;2024-01-07T13:44:33;3.70;;;1.85;;
53971;SDS011;40530;53.062;6.078;2024-01-07T13:46:59;7.55;;;2.67;;
53971;SDS011;40530;53.062;6.078;2024-01-07T13:49:30;4.57;;;2.33;;
53971;SDS011;40530;53.062;6.078;2024-01-07T13:51:57;5.32;;;2.33;;
53971;SDS011;40530;53.062;6.078;2024-01-07T13:54:23;4.13;;;2.22;;
53971;SDS011;40530;53.062;6.078;2024-01-07T13:56:49;9.38;;;2.22;;
53971;SDS011;40530;53.062;6.078;2024-01-07T13:59:15;6.68;;;2.22;;
53971;SDS011;40530;53.062;6.078;2024-01-07T14:01:42;7.45;;;2.50;;
53971;SDS011;40530;53.062;6.078;2024-01-07T14:04:08;5.72;;;2.13;;
53971;SDS011;40530;53.062;6.078;2024-01-07T14:06:35;8.65;;;2.70;;
53971;SDS011;40530;53.062;6.078;2024-01-07T14:09:01;5.93;;;2.65;;
53971;SDS011;40530;53.062;6.078;2024-01-07T14:11:28;9.27;;;2.65;;
53971;SDS011;40530;53.062;6.078;2024-01-07T14:13:54;8.13;;;2.25;;
53971;SDS011;40530;53.062;6.078;2024-01-07T14:16:20;6.88;;;2.42;;
53971;SDS011;40530;53.062;6.078;2024-01-07T14:18:46;5.57;;;2.00;;
53971;SDS011;40530;53.062;6.078;2024-01-07T14:21:12;5.50;;;2.75;;
53971;SDS011;40530;53.062;6.078;2024-01-07T14:23:38;4.18;;;2.60;;
53971;SDS011;40530;53.062;6.078;2024-01-07T14:26:04;8.25;;;2.75;;
53971;SDS011;40530;53.062;6.078;2024-01-07T14:28:30;5.80;;;2.78;;
53971;SDS011;40530;53.062;6.078;2024-01-07T14:30:56;6.28;;;2.60;;
53971;SDS011;40530;53.062;6.078;2024-01-07T14:33:23;9.48;;;2.97;;
53971;SDS011;40530;53.062;6.078;2024-01-07T14:35:49;4.43;;;2.10;;
53971;SDS011;40530;53.062;6.078;2024-01-07T14:38:15;3.80;;;2.30;;
53971;SDS011;40530;53.062;6.078;2024-01-07T14:40:41;8.27;;;2.58;;
53971;SDS011;40530;53.062;6.078;2024-01-07T14:43:11;6.88;;;2.80;;
53971;SDS011;40530;53.062;6.078;2024-01-07T14:45:37;8.18;;;2.40;;
53971;SDS011;40530;53.062;6.078;2024-01-07T14:48:03;6.82;;;3.75;;